HALF-HOURLY OBSERVATIONS INDEX

059

Mid North Coast

COFFS HARBOUR AIRPORT

Site: 059151
Alt: 3.5m
km of


  Time     Wind        Temp  DP   Baro     Rain since   Rain past  Vis(m), Cloud(base in m), Weather
  local        km/h                         9am  last   hr   10m    
Mon 11:00   SE 11/ 15  26.2 20.1  1014.5    0.0   0.0   0.0   0.0   10000 
Mon 11:30   SE 11/ 15  27.0 20.8  1014.5    0.0   0.0   0.0   0.0   10000 
Mon 12:00  ESE 13/ 15  27.4 20.5  1014.2    0.0   0.0   0.0   0.0   10000 
Mon 12:30    E 11/ 15  28.0 20.8  1013.9    0.0   0.0   0.0   0.0   10000 
Mon 13:00    E 13/ 15  28.2 21.7  1013.8    0.0   0.0   0.0   0.0   10000 
Mon 13:30    E 13/ 17  28.5 21.5  1013.5    0.0   0.0   0.0   0.0   10000 
Mon 14:00    E 15/ 17  28.5 20.8  1013.3    0.0   0.0   0.0   0.0   10000 
Mon 14:30    E 15/ 17  29.1 22.3  1013.0    0.0   0.0   0.0   0.0   10000 
Mon 15:00    E 13/ 17  28.8 21.6  1012.6    0.0   0.0   0.0   0.0   10000 
Mon 15:30    E 13/ 17  28.7 21.0  1012.5    0.0   0.0   0.0   0.0   10000 
Mon 16:00    E 13/ 17  28.8 20.8  1012.3    0.0   0.0   0.0   0.0   10000 
Mon 16:30  ENE 13/ 17  28.6 21.9  1012.2    0.0   0.0   0.0   0.0   10000 

KEMPSEY AIRPORT AWS

Site: 059007
Alt: 13.0m
6km WNW of KEMPSEY


  Time     Wind        Temp  DP   Baro     Rain since   Rain past  Vis(m), Cloud(base in m), Weather
  local        km/h                         9am  last   hr   10m    
Mon 11:00    E  2/  9  28.0 22.2  1014.2    0.0   0.0   0.0   0.0   ----- 
Mon 11:30  ESE  6/ 11  27.9 21.0  1014.0    0.0   0.0   0.0   0.0   ----- 
Mon 12:00  ESE  7/ 11  29.1 22.1  1013.7    0.0   0.0   0.0   0.0   ----- 
Mon 12:30    S  2/ 11  29.3 20.2  1013.4    0.0   0.0   0.0   0.0   ----- 
Mon 13:00    E  7/ 15  30.4 22.0  1013.1    0.0   0.0   0.0   0.0   ----- 
Mon 13:30  ESE  7/ 13  30.9 20.5  1012.7    0.0   0.0   0.0   0.0   ----- 
Mon 14:00  ENE 11/ 19  31.7 19.3  1012.3    0.0   0.0   0.0   0.0   ----- 
Mon 14:30    E 11/ 20  32.0 19.3  1012.1    0.0   0.0   0.0   0.0   ----- 
Mon 15:00   NE 19/ 24  31.5 22.2  1011.8    0.0   0.0   0.0   0.0   ----- 
Mon 15:30    E 19/ 26  30.7 22.3  1011.6    0.0   0.0   0.0   0.0   ----- 
Mon 16:00    E 17/ 26  30.9 22.5  1011.6    0.0   0.0   0.0   0.0   ----- 
Mon 16:30    E 17/ 24  29.7 22.2  1011.8    0.0   0.0   0.0   0.0   -----